Time;durP1;ratioP1;P1;durP2;ratioP2;P2;SDS_P1;SDS_P2;PMS_P1;PMS_P2;Temp;Humidity;BMP_temperature;BMP_pressure;BME280_temperature;BME280_humidity;BME280_pressure;Samples;Min_cycle;Max_cycle;Signal;HPM_P1;HPM_P2
2021/07/18 00:03:19;;;;;;;4.03;2.72;;;;;;;21.61;59.83;102085.97;6161037;28;20226;-67
2021/07/18 00:06:42;;;;;;;3.00;2.38;;;;;;;21.75;59.33;102074.88;6158851;28;20903;-66
2021/07/18 00:10:04;;;;;;;3.88;2.40;;;;;;;21.72;59.58;102081.16;6160568;28;20234;-67
2021/07/18 00:13:25;;;;;;;5.60;3.05;;;;;;;21.51;60.10;102068.66;6157789;28;20235;-66
2021/07/18 00:16:46;;;;;;;5.32;3.40;;;;;;;21.68;59.71;102074.22;6161797;28;20238;-67
2021/07/18 00:20:10;;;;;;;4.75;3.13;;;;;;;21.35;60.54;102073.59;6135242;28;20242;-67
2021/07/18 00:23:32;;;;;;;7.90;2.92;;;;;;;21.21;60.91;102082.03;6155378;28;20231;-66
2021/07/18 00:26:53;;;;;;;11.20;3.75;;;;;;;21.56;60.54;102079.97;6155204;28;20233;-68
2021/07/18 00:30:14;;;;;;;4.97;2.88;;;;;;;21.55;60.01;102072.94;6154137;28;20235;-67
2021/07/18 00:33:35;;;;;;;6.90;2.70;;;;;;;;;;6158962;28;20239;-67
2021/07/18 00:36:56;;;;;;;6.80;3.00;;;;;;;21.31;60.52;102080.78;6159012;28;20600;-66
2021/07/18 00:40:18;;;;;;;4.22;2.70;;;;;;;21.50;60.40;102072.22;6160276;28;20346;-65
2021/07/18 00:43:39;;;;;;;5.22;3.33;;;;;;;21.86;59.47;102074.50;6161897;28;20239;-67
2021/07/18 00:47:01;;;;;;;5.13;2.40;;;;;;;21.64;59.85;102077.91;6160361;28;20230;-67
2021/07/18 00:50:22;;;;;;;6.15;2.90;;;;;;;21.59;60.03;102075.41;6160749;28;20235;-67
2021/07/18 00:53:42;;;;;;;3.75;2.25;;;;;;;21.08;61.43;102078.06;6163001;28;20294;-67
2021/07/18 00:57:07;;;;;;;3.42;3.13;;;;;;;21.45;60.50;102071.53;6156145;28;20234;-67
2021/07/18 01:00:28;;;;;;;4.18;2.70;;;;;;;21.57;59.85;102073.75;6151273;28;20239;-66
2021/07/18 01:03:49;;;;;;;6.13;2.92;;;;;;;21.17;61.12;102075.06;6165542;28;20234;-67
2021/07/18 01:07:11;;;;;;;5.05;2.70;;;;;;;21.41;60.42;102076.91;6163594;28;20231;-67
2021/07/18 01:10:32;;;;;;;3.47;2.25;;;;;;;21.57;60.14;102071.09;6160742;28;20262;-66
2021/07/18 01:13:54;;;;;;;4.85;2.55;;;;;;;21.09;61.13;102069.16;6165532;28;20246;-68
2021/07/18 01:17:15;;;;;;;3.55;2.55;;;;;;;21.35;60.71;102071.81;6148739;28;20235;-67
2021/07/18 01:20:38;;;;;;;5.20;2.60;;;;;;;21.23;61.04;102078.41;6160141;28;20234;-66
2021/07/18 01:24:00;;;;;;;4.35;2.40;;;;;;;21.31;60.72;102070.19;6156258;28;20230;-67
2021/07/18 01:27:21;;;;;;;4.57;2.88;;;;;;;21.09;61.38;102071.81;6162366;28;20340;-66
2021/07/18 01:30:43;;;;;;;6.68;2.50;;;;;;;21.03;61.86;102075.53;6159593;28;20231;-67
2021/07/18 01:34:04;;;;;;;7.25;2.65;;;;;;;21.30;60.62;102068.44;6152912;28;20234;-67
2021/07/18 01:37:25;;;;;;;4.43;2.85;;;;;;;20.70;62.71;102082.78;6162703;28;20230;-67
2021/07/18 01:40:47;;;;;;;3.65;2.38;;;;;;;20.89;62.31;102065.41;6159108;28;20595;-67
2021/07/18 01:44:08;;;;;;;6.53;3.22;;;;;;;21.29;60.86;102066.72;6159239;28;20271;-67
2021/07/18 01:47:30;;;;;;;4.10;2.97;;;;;;;21.37;60.73;102069.97;6159081;28;20231;-67
2021/07/18 01:50:51;;;;;;;8.88;4.95;;;;;;;21.35;nan;102077.09;6163792;28;20245;-66
2021/07/18 01:54:12;;;;;;;9.93;4.60;;;;;;;21.18;61.36;102077.69;6161758;28;20235;-67
2021/07/18 01:57:34;;;;;;;5.93;4.22;;;;;;;21.08;61.71;102072.75;6154047;28;20266;-67
2021/07/18 02:00:55;;;;;;;4.57;4.05;;;;;;;21.35;60.82;102071.81;6152669;28;20945;-67
2021/07/18 02:04:16;;;;;;;5.65;2.63;;;;;;;20.58;63.35;102071.63;6158983;28;20223;-67
2021/07/18 02:07:37;;;;;;;4.82;3.10;;;;;;;20.61;63.43;102076.88;6153619;28;20595;-67
2021/07/18 02:10:58;;;;;;;5.03;2.80;;;;;;;20.87;62.42;102072.53;6162682;28;20238;-65
2021/07/18 02:14:22;;;;;;;5.00;2.75;;;;;;;20.86;62.29;102068.16;6158478;28;20582;-67
2021/07/18 02:17:43;;;;;;;8.20;3.33;;;;;;;20.60;63.65;102080.44;6155213;28;20680;-66
2021/07/18 02:21:04;;;;;;;5.32;2.90;;;;;;;20.79;62.89;102071.91;6139969;28;20593;-66
2021/07/18 02:24:25;;;;;;;5.45;2.90;;;;;;;20.73;63.24;102072.13;6145111;28;20615;-66
2021/07/18 02:27:46;;;;;;;4.65;2.40;;;;;;;20.89;63.00;102065.41;6158905;28;20234;-67
2021/07/18 02:31:09;;;;;;;10.32;3.63;;;;;;;20.89;62.83;102062.75;6160690;28;20247;-67
2021/07/18 02:34:30;;;;;;;6.97;2.45;;;;;;;21.30;61.59;102067.59;6154414;28;20234;-68
2021/07/18 02:37:52;;;;;;;5.45;2.90;;;;;;;21.14;61.94;102062.81;6160528;28;20242;-67
2021/07/18 02:41:14;;;;;;;4.22;2.53;;;;;;;20.56;64.09;102060.22;6152572;28;20230;-68
2021/07/18 02:44:35;;;;;;;4.65;3.22;;;;;;;20.88;63.40;102055.75;6149585;28;20680;-67
2021/07/18 02:47:58;;;;;;;3.30;2.17;;;;;;;20.81;63.58;102048.91;6157882;28;20242;-67
2021/07/18 02:51:18;;;;;;;4.95;2.95;;;;;;;20.69;64.04;102049.31;6146773;28;20234;-67
2021/07/18 02:54:39;;;;;;;3.90;2.60;;;;;;;20.53;64.50;102052.41;6153203;28;20616;-68
2021/07/18 02:58:00;;;;;;;4.20;2.75;;;;;;;20.79;63.80;102048.94;6150186;28;20235;-67
2021/07/18 03:01:21;;;;;;;9.07;2.78;;;;;;;20.97;63.12;102044.81;6123006;28;1056045;-66
2021/07/18 03:04:44;;;;;;;5.78;3.17;;;;;;;20.98;63.01;102038.63;6154173;28;20234;-66
2021/07/18 03:08:05;;;;;;;4.47;2.95;;;;;;;20.95;63.44;102044.00;6160920;28;20246;-65
2021/07/18 03:11:26;;;;;;;3.15;2.38;;;;;;;20.68;64.18;102051.06;6152262;28;20258;-66
2021/07/18 03:14:46;;;;;;;8.88;2.75;;;;;;;20.69;64.47;102052.81;6161345;28;20623;-66
2021/07/18 03:18:08;;;;;;;6.38;2.83;;;;;;;20.95;63.36;102051.94;6149023;28;20230;-66
2021/07/18 03:21:34;;;;;;;3.63;2.90;;;;;;;20.85;63.72;102055.81;6150806;28;20238;-66
2021/07/18 03:24:55;;;;;;;5.30;3.50;;;;;;;20.75;63.98;102054.41;6157054;28;20239;-67
2021/07/18 03:28:16;;;;;;;3.60;2.38;;;;;;;20.45;64.95;102052.66;6152530;28;20621;-67
2021/07/18 03:31:36;;;;;;;3.92;3.17;;;;;;;20.54;64.67;102045.34;6150364;28;20262;-68
2021/07/18 03:34:57;;;;;;;10.68;8.57;;;;;;;20.12;65.93;102033.34;6157902;28;20555;-68
2021/07/18 03:38:19;;;;;;;6.68;3.17;;;;;;;20.82;64.27;102027.69;6158137;28;20230;-66
2021/07/18 03:41:40;;;;;;;8.13;3.83;;;;;;;20.74;64.17;102034.13;6158282;28;20226;-69
2021/07/18 03:45:01;;;;;;;6.65;4.45;;;;;;;20.75;64.21;102039.38;6156598;28;20234;-68
2021/07/18 03:48:22;;;;;;;4.25;2.55;;;;;;;20.88;63.46;102034.56;6160122;28;20241;-66
2021/07/18 03:51:43;;;;;;;6.30;3.25;;;;;;;20.83;63.89;102036.47;6158182;28;20325;-67
2021/07/18 03:55:06;;;;;;;4.90;3.75;;;;;;;20.60;64.69;102035.44;6159508;28;20235;-67
2021/07/18 03:58:27;;;;;;;3.35;2.92;;;;;;;20.32;65.57;102037.19;6162651;28;20253;-68
2021/07/18 04:01:48;;;;;;;8.02;4.28;;;;;;;20.55;65.05;102040.00;6165162;28;20242;-67
2021/07/18 04:05:09;;;;;;;8.25;3.80;;;;;;;20.72;64.25;102050.06;6152657;28;20246;-67
2021/07/18 04:08:31;;;;;;;4.45;3.28;;;;;;;20.97;63.63;102044.81;6162756;28;20313;-66
2021/07/18 04:11:53;;;;;;;5.82;3.78;;;;;;;20.92;63.70;102052.06;6152781;28;20238;-67
2021/07/18 04:15:14;;;;;;;5.22;3.35;;;;;;;21.18;62.81;102053.84;6159252;28;20222;-67
2021/07/18 04:18:36;;;;;;;3.00;2.70;;;;;;;21.48;61.93;102047.56;6159934;28;20234;-67
2021/07/18 04:21:57;;;;;;;4.28;3.22;;;;;;;21.53;61.56;102049.13;6153746;28;20231;-68
2021/07/18 04:25:18;;;;;;;4.72;2.40;;;;;;;21.43;62.05;102043.28;6156142;28;20234;-67
2021/07/18 04:28:40;;;;;;;7.80;3.60;;;;;;;21.35;62.24;102055.91;6151275;28;20238;-68
2021/07/18 04:32:01;;;;;;;7.65;2.85;;;;;;;21.17;62.80;102051.22;6163105;28;20246;-67
2021/07/18 04:35:22;;;;;;;3.83;2.47;;;;;;;21.25;62.44;102049.22;6161677;28;20234;-68
2021/07/18 04:38:43;;;;;;;5.70;3.22;;;;;;;20.93;63.24;102048.50;6156824;28;20313;-67
2021/07/18 04:42:05;;;;;;;4.22;2.83;;;;;;;21.10;63.06;102049.72;6152540;28;20239;-67
2021/07/18 04:45:27;;;;;;;6.30;2.90;;;;;;;21.24;62.45;102050.13;6156121;28;20231;-67
2021/07/18 04:48:48;;;;;;;3.30;2.40;;;;;;;21.56;61.47;102050.81;6162886;28;20531;-67
2021/07/18 04:52:09;;;;;;;4.28;2.42;;;;;;;21.19;62.65;102047.63;6153730;28;20396;-66
2021/07/18 04:55:30;;;;;;;4.45;2.20;;;;;;;21.68;61.24;102047.72;6164565;28;20314;-67
2021/07/18 04:58:51;;;;;;;4.68;2.42;;;;;;;21.16;62.44;102053.03;6161578;28;21024;-67
2021/07/18 05:02:13;;;;;;;6.07;3.15;;;;;;;21.30;62.67;102052.53;6159312;28;20235;-67
2021/07/18 05:05:34;;;;;;;2.75;2.35;;;;;;;21.61;61.31;102047.06;6168093;28;20258;-67
2021/07/18 05:08:55;;;;;;;9.27;3.20;;;;;;;21.41;62.15;102045.09;6154112;28;20239;-67
2021/07/18 05:12:16;;;;;;;2.40;1.88;;;;;;;21.83;60.78;102046.31;6163567;28;20234;-67
2021/07/18 05:15:37;;;;;;;3.90;2.30;;;;;;;21.61;61.80;102032.94;6156116;28;20230;-66
2021/07/18 05:19:00;;;;;;;4.80;2.72;;;;;;;21.88;60.93;102041.69;6156064;28;20235;-67
2021/07/18 05:22:21;;;;;;;5.78;3.35;;;;;;;21.55;61.86;102043.78;6158652;28;20250;-67
2021/07/18 05:25:42;;;;;;;3.85;2.53;;;;;;;22.02;60.53;102038.50;6159724;28;20600;-67
2021/07/18 05:29:03;;;;;;;3.20;2.08;;;;;;;22.05;60.58;102045.50;6153736;28;20270;-69
2021/07/18 05:32:24;;;;;;;3.40;3.10;;;;;;;22.07;60.49;102041.84;6160555;28;20514;-68
2021/07/18 05:35:46;;;;;;;3.58;2.38;;;;;;;22.13;60.30;102043.41;6155591;28;20323;-67
2021/07/18 05:39:07;;;;;;;2.70;2.22;;;;;;;22.42;59.39;102045.81;6148302;28;20239;-66
2021/07/18 05:42:28;;;;;;;2.90;1.88;;;;;;;22.35;59.23;102052.31;6148962;28;20231;-66
2021/07/18 05:45:49;;;;;;;3.72;2.85;;;;;;;21.95;60.21;102060.91;6151136;28;20235;-66
2021/07/18 05:49:10;;;;;;;2.72;2.53;;;;;;;22.21;59.72;102055.44;6148956;28;20230;-67
2021/07/18 05:52:33;;;;;;;2.88;2.17;;;;;;;22.36;59.80;102058.47;6157611;28;20262;-66
2021/07/18 05:55:54;;;;;;;8.65;2.83;;;;;;;22.20;59.99;102056.38;6155233;28;20266;-66
2021/07/18 05:59:15;;;;;;;4.38;2.90;;;;;;;22.50;59.18;102050.81;6156291;28;20946;-68
2021/07/18 06:02:36;;;;;;;3.95;2.78;;;;;;;22.55;58.77;102054.19;6157337;28;20235;-68
2021/07/18 06:05:57;;;;;;;3.45;2.80;;;;;;;22.47;59.06;102058.03;6151050;28;20234;-69
2021/07/18 06:09:19;;;;;;;4.20;3.30;;;;;;;22.60;58.52;102056.63;6151789;28;20234;-68
2021/07/18 06:12:40;;;;;;;6.30;2.97;;;;;;;22.44;58.86;102064.34;6154352;28;20594;-67
2021/07/18 06:16:01;;;;;;;3.25;2.45;;;;;;;22.68;58.07;102064.28;6155164;28;20250;-69
2021/07/18 06:19:22;;;;;;;7.40;3.67;;;;;;;23.16;56.49;102060.56;6154302;28;20238;-68
2021/07/18 06:22:43;;;;;;;4.88;2.55;;;;;;;23.21;56.48;102063.06;6146225;28;20230;-68
2021/07/18 06:26:05;;;;;;;3.92;2.13;;;;;;;23.08;56.68;102065.34;6159608;28;20750;-68
2021/07/18 06:29:26;;;;;;;6.88;2.90;;;;;;;22.79;57.64;102067.38;6154162;28;20246;-68
2021/07/18 06:32:47;;;;;;;2.88;2.13;;;;;;;23.42;55.73;102069.22;6150251;28;20758;-67
2021/07/18 06:36:08;;;;;;;2.95;2.58;;;;;;;23.09;56.69;102067.97;6159445;28;20247;-67
2021/07/18 06:39:29;;;;;;;4.40;2.70;;;;;;;23.12;56.30;102056.31;6145434;28;20234;-68
2021/07/18 06:42:52;;;;;;;4.13;2.13;;;;;;;23.14;56.05;102060.63;6159106;28;20625;-66
2021/07/18 06:46:13;;;;;;;4.63;2.65;;;;;;;23.56;55.26;102061.53;6156498;28;20317;-67
2021/07/18 06:49:35;;;;;;;4.57;2.58;;;;;;;23.81;54.09;102071.06;6148858;28;20258;-68
2021/07/18 06:52:55;;;;;;;6.97;2.72;;;;;;;23.95;53.21;102069.53;6156134;28;20243;-67
2021/07/18 06:56:16;;;;;;;7.55;3.17;;;;;;;23.97;53.37;102066.81;6154517;28;20227;-67
2021/07/18 06:59:39;;;;;;;4.10;2.70;;;;;;;23.49;54.76;102070.69;6141122;28;20238;-66
2021/07/18 07:02:59;;;;;;;3.38;2.13;;;;;;;23.65;53.97;102071.75;6147194;28;20242;-50
2021/07/18 07:06:20;;;;;;;37.92;34.80;;;;;;;23.82;53.93;102067.50;6146673;28;20333;-51
2021/07/18 07:09:41;;;;;;;205.32;149.25;;;;;;;24.41;53.88;102061.22;6139602;28;20756;-53
2021/07/18 07:13:03;;;;;;;200.70;186.13;;;;;;;24.71;52.76;102050.03;6146946;28;20234;-54
2021/07/18 07:16:25;;;;;;;7.13;2.67;;;;;;;24.67;51.13;102056.44;6151534;28;20715;-50
2021/07/18 07:19:47;;;;;;;11.93;10.93;;;;;;;24.42;51.83;102062.06;6146978;28;21533;-52
2021/07/18 07:23:08;;;;;;;57.28;52.90;;;;;;;24.76;53.96;102061.31;6150081;28;20286;-53
2021/07/18 07:26:29;;;;;;;26.45;24.35;;;;;;;25.08;50.23;102072.16;6152588;28;20600;-52
2021/07/18 07:29:51;;;;;;;335.77;310.67;;;;;;;25.19;52.39;102074.31;6150102;28;20234;-55
2021/07/18 07:33:14;;;;;;;198.13;183.82;;;;;;;24.96;50.15;102063.00;6150502;28;20247;-53
2021/07/18 07:36:35;;;;;;;66.35;61.45;;;;;;;25.47;48.50;102063.09;6146986;28;20243;-48
2021/07/18 07:39:56;;;;;;;6.90;6.18;;;;;;;25.00;49.52;102061.03;6149946;28;20238;-54
2021/07/18 07:43:17;;;;;;;5.18;3.30;;;;;;;24.96;49.79;102069.19;6148145;28;20252;-50
2021/07/18 07:46:38;;;;;;;4.53;2.92;;;;;;;25.08;49.25;102069.50;6153872;28;20230;-55
2021/07/18 07:50:00;;;;;;;3.45;2.50;;;;;;;25.22;49.14;102068.78;6159860;28;20234;-55
2021/07/18 07:53:21;;;;;;;3.40;2.95;;;;;;;25.30;48.51;102070.19;6153930;28;20289;-52
2021/07/18 07:56:42;;;;;;;3.53;2.92;;;;;;;24.95;49.96;102064.81;6147273;28;20230;-52
2021/07/18 08:00:05;;;;;;;4.65;2.75;;;;;;;24.49;50.33;102061.69;6143115;28;20231;-52
2021/07/18 08:03:33;;;;;;;5.70;3.03;;;;;;;24.31;51.30;102065.22;6149070;28;20800;-53
2021/07/18 08:06:55;;;;;;;4.45;2.08;;;;;;;25.01;49.69;102060.09;6148885;28;20230;-52
2021/07/18 08:10:19;;;;;;;12.15;3.15;;;;;;;25.11;49.38;102072.03;6148690;28;20652;-53
2021/07/18 08:13:40;;;;;;;4.53;2.83;;;;;;;25.24;47.80;102054.50;6139380;28;20578;-51
2021/07/18 08:17:02;;;;;;;5.80;2.45;;;;;;;24.96;49.46;102060.31;6148102;28;20235;-51
2021/07/18 08:20:26;;;;;;;2.63;1.77;;;;;;;25.57;47.91;102064.34;6150799;28;20235;-47
2021/07/18 08:23:49;;;;;;;5.10;2.45;;;;;;;25.62;47.97;102072.97;6150021;28;20556;-50
2021/07/18 08:27:10;;;;;;;3.63;1.52;;;;;;;25.55;47.75;102068.88;6157693;28;20514;-49
2021/07/18 08:30:31;;;;;;;3.90;2.20;;;;;;;25.89;47.41;102070.63;6156303;28;20238;-52
2021/07/18 08:33:52;;;;;;;4.05;1.85;;;;;;;25.96;46.47;102079.22;6156853;28;20238;-54
2021/07/18 08:37:13;;;;;;;3.88;2.30;;;;;;;25.54;47.69;102077.84;6157985;28;20269;-51
2021/07/18 08:40:38;;;;;;;3.60;2.10;;;;;;;25.33;48.17;102074.47;6152121;28;20234;-55
2021/07/18 08:43:59;;;;;;;3.75;2.28;;;;;;;25.64;47.85;102073.75;6164347;28;20303;-52
2021/07/18 08:47:20;;;;;;;3.92;2.28;;;;;;;25.49;48.20;102069.22;6165370;28;20802;-49
2021/07/18 08:50:41;;;;;;;3.55;2.28;;;;;;;25.82;47.51;102073.69;6161932;28;20615;-53
2021/07/18 08:54:03;;;;;;;3.70;1.63;;;;;;;25.65;47.81;102067.47;6154979;28;20231;-51
2021/07/18 08:57:26;;;;;;;3.85;2.40;;;;;;;25.20;48.83;102066.19;6157395;28;20510;-53
2021/07/18 09:00:47;;;;;;;3.47;1.85;;;;;;;25.34;48.47;102066.41;6151746;28;20620;-50
2021/07/18 09:04:08;;;;;;;4.82;2.90;;;;;;;25.71;47.24;102064.47;6158147;28;20904;-50
2021/07/18 09:07:29;;;;;;;4.90;2.85;;;;;;;26.62;45.33;102056.88;6149053;28;20231;-50
2021/07/18 09:10:51;;;;;;;8.02;2.25;;;;;;;27.29;44.01;102043.16;6158265;28;20497;-49
2021/07/18 09:14:13;;;;;;;3.72;2.10;;;;;;;26.83;45.01;102052.09;6153563;28;20245;-55
2021/07/18 09:17:36;;;;;;;3.35;2.55;;;;;;;26.60;44.86;102060.56;6152429;28;20231;-52
2021/07/18 09:20:58;;;;;;;3.78;2.85;;;;;;;26.94;45.11;102043.44;6156637;28;20294;-67
2021/07/18 09:24:21;;;;;;;3.55;1.83;;;;;;;27.52;43.84;102044.44;6150891;28;20227;-67
2021/07/18 09:27:42;;;;;;;6.32;2.78;;;;;;;27.50;43.42;102047.19;6147712;28;20222;-67
2021/07/18 09:31:27;;;;;;;3.58;1.77;;;;;;;27.26;44.01;102038.88;6158755;28;20398;-66
2021/07/18 09:34:50;;;;;;;4.32;2.47;;;;;;;27.51;43.63;102042.72;6149523;28;20246;-67
2021/07/18 09:38:21;;;;;;;4.88;2.03;;;;;;;27.17;44.61;102052.75;6144251;28;20587;-65
2021/07/18 09:41:43;;;;;;;6.72;2.17;;;;;;;26.76;45.02;102042.69;6151485;28;20239;-67
2021/07/18 09:45:14;;;;;;;3.33;2.20;;;;;;;26.79;44.80;102045.19;6151425;28;20474;-66
2021/07/18 09:48:40;;;;;;;4.00;2.63;;;;;;;27.68;43.17;102047.91;6153777;28;20511;-66
2021/07/18 09:52:18;;;;;;;3.00;1.65;;;;;;;26.92;45.27;102053.34;6157418;28;20632;-66
2021/07/18 09:55:54;;;;;;;4.28;2.05;;;;;;;26.70;44.88;102051.94;6158179;28;20234;-66
2021/07/18 09:59:17;;;;;;;4.25;2.25;;;;;;;26.49;44.74;102054.00;6141087;28;20226;-66
2021/07/18 10:02:41;;;;;;;4.70;1.73;;;;;;;26.44;44.70;102045.38;6150973;28;20763;-67
2021/07/18 10:06:11;;;;;;;5.30;2.65;;;;;;;26.64;45.64;102046.09;6155034;28;20872;-65
2021/07/18 10:09:33;;;;;;;3.28;2.00;;;;;;;26.64;44.64;102035.41;6163223;28;20226;-66
2021/07/18 10:12:54;;;;;;;4.25;1.98;;;;;;;27.18;43.57;102034.88;6147283;28;20349;-67
2021/07/18 10:16:17;;;;;;;3.22;2.08;;;;;;;27.10;43.73;102040.69;6152320;28;20230;-65
2021/07/18 10:19:38;;;;;;;5.90;2.42;;;;;;;26.27;45.42;102042.81;6156465;28;20619;-66
2021/07/18 10:23:01;;;;;;;8.35;2.05;;;;;;;26.38;44.31;102028.84;6145894;28;20262;-67
2021/07/18 10:26:25;;;;;;;4.78;2.40;;;;;;;27.40;42.34;102023.81;6159205;28;20229;-67
2021/07/18 10:29:47;;;;;;;4.45;2.63;;;;;;;27.81;42.03;102023.88;6152866;28;20234;-67
2021/07/18 10:33:08;;;;;;;3.35;1.90;;;;;;;27.20;43.63;102020.50;6146809;28;20250;-66
2021/07/18 10:36:30;;;;;;;2.28;1.60;;;;;;;27.72;41.92;102018.25;6154251;28;20239;-68
2021/07/18 10:39:55;;;;;;;1.95;1.58;;;;;;;28.28;40.71;102011.13;6143542;28;20597;-68
2021/07/18 10:43:39;;;;;;;3.20;1.90;;;;;;;27.63;42.35;102028.59;6151093;28;20227;-68
2021/07/18 10:47:00;;;;;;;5.63;2.33;;;;;;;27.19;42.28;102021.44;6145913;28;20230;-68
2021/07/18 10:50:48;;;;;;;4.00;1.90;;;;;;;28.10;40.46;102001.63;6154621;28;20321;-67
2021/07/18 10:54:11;;;;;;;2.40;1.70;;;;;;;28.71;39.64;102007.44;6151015;28;20514;-67
2021/07/18 10:57:36;;;;;;;3.80;1.80;;;;;;;28.31;40.80;102002.88;6159115;28;20227;-66
2021/07/18 11:00:58;;;;;;;2.85;1.77;;;;;;;27.78;41.61;102012.50;6151214;28;20235;-66
2021/07/18 11:04:45;;;;;;;3.65;1.63;;;;;;;27.36;42.06;102007.09;6155845;28;20258;-66
2021/07/18 11:08:06;;;;;;;3.92;1.35;;;;;;;27.54;41.42;102005.06;6156528;28;20235;-66
2021/07/18 11:11:38;;;;;;;4.95;1.73;;;;;;;27.39;41.77;101998.84;6151913;28;20624;-66
2021/07/18 11:15:23;;;;;;;3.42;2.00;;;;;;;28.03;40.50;102007.38;6151037;28;20243;-68
2021/07/18 11:18:44;;;;;;;3.22;1.75;;;;;;;28.05;40.42;101992.06;6154288;28;20541;-66
2021/07/18 11:22:06;;;;;;;1.67;1.55;;;;;;;28.29;40.26;101996.78;6147750;28;20239;-65
2021/07/18 11:25:45;;;;;;;2.97;1.98;;;;;;;27.45;40.50;101994.94;6148492;28;20330;-65
2021/07/18 11:29:06;;;;;;;3.15;1.45;;;;;;;27.94;40.92;101986.53;6151900;28;20234;-67
2021/07/18 11:32:30;;;;;;;4.55;1.60;;;;;;;27.83;40.15;101983.66;6147083;28;20254;-65
2021/07/18 11:35:52;;;;;;;4.50;2.75;;;;;;;28.30;40.54;101982.41;6152056;28;20234;-66
2021/07/18 11:39:16;;;;;;;4.55;1.63;;;;;;;28.30;39.54;101970.84;6160170;28;20238;-66
2021/07/18 11:42:37;;;;;;;4.30;1.83;;;;;;;28.27;38.66;101966.56;6158786;28;20234;-67
2021/07/18 11:45:58;;;;;;;2.60;2.08;;;;;;;28.52;39.50;101978.34;6156443;28;20625;-65
2021/07/18 11:49:20;;;;;;;4.25;1.52;;;;;;;28.08;38.34;101966.91;6145824;28;20230;-66
2021/07/18 11:52:41;;;;;;;2.95;1.48;;;;;;;27.91;38.40;101964.47;6158804;28;20219;-68
2021/07/18 11:56:02;;;;;;;2.25;1.05;;;;;;;28.36;38.49;101971.28;6147009;28;20483;-68
2021/07/18 11:59:25;;;;;;;1.83;1.33;;;;;;;27.69;39.41;101977.34;6149879;28;20235;-66
2021/07/18 12:02:46;;;;;;;2.90;0.95;;;;;;;28.18;38.09;101953.78;6147924;28;20238;-66
2021/07/18 12:06:17;;;;;;;1.95;1.30;;;;;;;27.66;38.90;101955.28;6155073;28;20234;-66
2021/07/18 12:09:42;;;;;;;3.55;1.10;;;;;;;27.78;38.67;101945.59;6147312;28;20550;-66
2021/07/18 12:13:03;;;;;;;2.60;1.45;;;;;;;28.32;37.60;101948.34;6149668;28;20227;-67
2021/07/18 12:16:25;;;;;;;2.55;1.55;;;;;;;28.16;37.66;101936.94;6153087;28;20281;-67
2021/07/18 12:19:46;;;;;;;2.28;1.58;;;;;;;28.52;37.09;101948.88;6155543;28;20230;-66
2021/07/18 12:23:12;;;;;;;4.50;1.00;;;;;;;29.54;35.34;101931.97;6153553;28;20227;-66
2021/07/18 12:26:33;;;;;;;5.57;1.20;;;;;;;27.75;37.86;101930.63;6156623;28;20576;-67
2021/07/18 12:29:56;;;;;;;4.05;1.40;;;;;;;28.26;37.46;101928.19;6151915;28;20239;-67
2021/07/18 12:33:18;;;;;;;2.45;1.33;;;;;;;29.50;35.58;101925.97;6149411;28;20652;-68
2021/07/18 12:36:56;;;;;;;5.35;2.28;;;;;;;29.88;34.91;101933.09;6153475;28;20230;-65
2021/07/18 12:40:22;;;;;;;3.33;1.30;;;;;;;29.14;36.39;101927.66;6157878;28;20584;-66
2021/07/18 12:43:44;;;;;;;2.63;0.98;;;;;;;29.37;36.28;101930.50;6148105;28;20833;-66
2021/07/18 12:47:29;;;;;;;1.83;1.20;;;;;;;29.92;34.64;101915.78;6151516;28;20235;-66
2021/07/18 12:50:51;;;;;;;6.82;2.05;;;;;;;29.10;36.38;101923.44;6151789;28;20227;-67
2021/07/18 12:54:14;;;;;;;2.78;1.10;;;;;;;28.38;37.70;101914.94;6154552;28;20548;-66
2021/07/18 12:57:36;;;;;;;3.17;1.42;;;;;;;28.41;38.77;101915.59;6149510;28;20226;-66
2021/07/18 13:01:05;;;;;;;2.25;2.05;;;;;;;28.48;38.70;101916.91;6151663;28;20239;-67
2021/07/18 13:04:32;;;;;;;1.83;1.20;;;;;;;29.10;37.06;101928.78;6150897;28;21918;-66
2021/07/18 13:07:53;;;;;;;1.92;1.65;;;;;;;30.73;34.94;101916.00;6148085;28;20340;-67
2021/07/18 13:11:36;;;;;;;1.65;1.52;;;;;;;31.19;33.95;101917.78;6150963;28;20234;-66
2021/07/18 13:15:11;;;;;;;6.18;1.77;;;;;;;31.51;33.18;101907.19;6148147;28;20234;-65
2021/07/18 13:18:37;;;;;;;3.38;1.92;;;;;;;30.86;34.14;101915.91;6146234;28;20242;-66
2021/07/18 13:22:01;;;;;;;2.53;1.92;;;;;;;33.63;30.49;101914.41;6151198;28;20230;-66
2021/07/18 13:25:24;;;;;;;3.22;1.50;;;;;;;34.65;27.96;101898.66;6158921;28;20314;-66
2021/07/18 13:28:45;;;;;;;4.25;2.60;;;;;;;33.27;28.58;101903.16;6147777;28;20231;-66
2021/07/18 13:32:12;;;;;;;5.85;1.98;;;;;;;31.34;31.97;101899.59;6150091;28;20242;-66
2021/07/18 13:35:45;;;;;;;4.60;1.60;;;;;;;30.10;35.40;101902.81;6146221;28;20235;-66
2021/07/18 13:39:10;;;;;;;6.10;1.75;;;;;;;30.91;34.09;101903.00;6149542;28;20226;-66
2021/07/18 13:42:33;;;;;;;3.92;1.33;;;;;;;29.95;36.22;101909.34;6154751;28;20246;-65
2021/07/18 13:45:57;;;;;;;4.35;1.77;;;;;;;30.12;36.40;101908.94;6150920;28;20238;-66
2021/07/18 13:49:19;;;;;;;1.33;1.17;;;;;;;29.67;36.11;101905.13;6151572;28;20624;-64
2021/07/18 13:52:41;;;;;;;4.13;1.60;;;;;;;28.32;40.01;101900.13;6143177;28;20746;-67
2021/07/18 13:56:02;;;;;;;7.57;1.42;;;;;;;28.65;39.38;101898.84;6146544;28;20235;-67
2021/07/18 13:59:23;;;;;;;5.38;2.47;;;;;;;28.00;41.32;101900.47;6148423;28;20612;-66
2021/07/18 14:02:44;;;;;;;2.42;1.92;;;;;;;28.78;40.45;101905.06;6142749;28;20226;-66
2021/07/18 14:06:08;;;;;;;3.08;1.60;;;;;;;29.71;38.46;101896.72;6151942;28;20231;-66
2021/07/18 14:09:29;;;;;;;2.33;1.63;;;;;;;30.99;35.24;101901.41;6147624;28;20538;-67
2021/07/18 14:12:50;;;;;;;4.50;1.70;;;;;;;31.06;35.90;101899.09;6148044;28;20234;-67
2021/07/18 14:16:11;;;;;;;2.88;1.80;;;;;;;28.99;38.50;101905.41;6152477;28;20247;-65
2021/07/18 14:19:32;;;;;;;4.53;1.98;;;;;;;28.47;39.38;101903.59;6145746;28;20630;-65
2021/07/18 14:22:56;;;;;;;4.20;1.70;;;;;;;28.04;40.40;101904.66;6146176;28;20231;-66
2021/07/18 14:26:17;;;;;;;4.25;1.92;;;;;;;28.60;39.51;101903.69;6146403;28;20219;-66
2021/07/18 14:29:38;;;;;;;2.15;1.90;;;;;;;29.18;37.80;101899.63;6145089;28;20588;-66
2021/07/18 14:33:00;;;;;;;3.08;1.75;;;;;;;28.82;38.98;101897.69;6152064;28;20633;-66
2021/07/18 14:36:21;;;;;;;2.30;1.33;;;;;;;29.30;38.00;101881.81;6143548;28;20262;-66
2021/07/18 14:39:43;;;;;;;2.90;1.70;;;;;;;28.83;38.68;101883.31;6151248;28;20262;-67
2021/07/18 14:43:05;;;;;;;6.20;1.98;;;;;;;28.54;39.59;101888.00;6148548;28;20286;-66
2021/07/18 14:46:26;;;;;;;7.07;2.65;;;;;;;28.79;39.22;101890.72;6146515;28;20246;-66
2021/07/18 14:49:47;;;;;;;4.63;2.03;;;;;;;28.65;39.20;101885.44;6144175;28;20251;-66
2021/07/18 14:53:08;;;;;;;6.63;2.92;;;;;;;29.17;38.75;101880.97;6150362;28;20331;-66
2021/07/18 14:56:31;;;;;;;2.78;1.90;;;;;;;28.01;38.77;101882.59;6154931;28;20317;-67
2021/07/18 14:59:52;;;;;;;3.20;1.58;;;;;;;28.06;38.45;101878.66;6146816;28;21329;-67
2021/07/18 15:03:13;;;;;;;6.05;2.10;;;;;;;28.47;37.93;101879.50;6137860;28;20234;-66
2021/07/18 15:06:33;;;;;;;3.33;2.38;;;;;;;28.94;37.51;101874.50;6149323;28;20227;-66
2021/07/18 15:09:55;;;;;;;5.03;1.90;;;;;;;29.29;36.44;101874.72;6146722;28;20497;-65
2021/07/18 15:13:17;;;;;;;3.08;1.80;;;;;;;29.14;36.75;101876.69;6148725;28;20234;-66
2021/07/18 15:16:38;;;;;;;1.83;1.55;;;;;;;29.24;36.65;101883.09;6148855;28;20245;-66
2021/07/18 15:19:59;;;;;;;7.25;1.75;;;;;;;29.04;36.88;101878.25;6146243;28;20241;-65
2021/07/18 15:23:20;;;;;;;3.45;2.17;;;;;;;28.83;37.14;101888.69;6148641;28;20226;-65
2021/07/18 15:26:41;;;;;;;1.60;1.45;;;;;;;28.85;36.16;101879.56;6144236;28;20227;-66
2021/07/18 15:30:04;;;;;;;1.88;1.60;;;;;;;28.42;37.40;101874.47;6140941;28;20584;-66
2021/07/18 15:33:25;;;;;;;3.38;2.63;;;;;;;28.19;38.61;101867.97;6157124;28;20596;-66
2021/07/18 15:36:47;;;;;;;2.95;1.88;;;;;;;27.85;39.73;101872.00;6154058;28;20266;-65
2021/07/18 15:40:10;;;;;;;3.70;2.17;;;;;;;27.45;41.28;101878.13;6150610;28;20246;-64
2021/07/18 15:43:31;;;;;;;1.95;1.70;;;;;;;28.27;40.35;101870.16;6153480;28;20238;-65